Time;durP1;ratioP1;P1;durP2;ratioP2;P2;SDS_P1;SDS_P2;PMS_P1;PMS_P2;Temp;Humidity;BMP_temperature;BMP_pressure;BME280_temperature;BME280_humidity;BME280_pressure;Samples;Min_cycle;Max_cycle;Signal;HPM_P1;HPM_P2
2022/01/16 00:01:42;;;;;;;76.60;37.17;;;4.40;99.90;;;;;;5057343;28;20033;-72
2022/01/16 00:04:07;;;;;;;80.05;38.05;;;4.50;99.90;;;;;;5056572;28;20041;-71
2022/01/16 00:06:37;;;;;;;79.18;37.67;;;4.50;99.90;;;;;;5057413;28;20092;-72
2022/01/16 00:09:04;;;;;;;72.07;36.40;;;4.40;99.90;;;;;;5055795;28;20502;-71
2022/01/16 00:11:31;;;;;;;72.03;35.85;;;4.40;99.90;;;;;;5057645;28;20060;-71
2022/01/16 00:13:56;;;;;;;78.95;36.50;;;4.40;99.90;;;;;;5057685;28;20090;-71
2022/01/16 00:16:23;;;;;;;75.90;35.70;;;4.50;99.90;;;;;;5056849;28;20029;-72
2022/01/16 00:18:49;;;;;;;72.50;33.97;;;4.40;99.90;;;;;;5051030;28;20033;-71
2022/01/16 00:21:31;;;;;;;68.43;33.72;;;4.30;99.90;;;;;;5039425;28;20135;-71
2022/01/16 00:23:57;;;;;;;58.00;29.42;;;4.40;99.90;;;;;;5046026;28;20032;-71
2022/01/16 00:26:23;;;;;;;58.47;27.73;;;4.30;99.90;;;;;;5051847;28;20059;-71
2022/01/16 00:28:50;;;;;;;53.50;26.00;;;4.30;99.90;;;;;;5020767;28;20080;-71
2022/01/16 00:31:21;;;;;;;50.35;26.15;;;4.30;99.90;;;;;;5032199;28;20021;-72
2022/01/16 00:33:47;;;;;;;46.53;23.95;;;4.20;99.90;;;;;;5048528;28;20025;-70
2022/01/16 00:36:17;;;;;;;48.25;23.98;;;4.20;99.90;;;;;;5048090;28;20035;-70
2022/01/16 00:38:44;;;;;;;48.03;24.55;;;4.20;99.90;;;;;;5054735;28;20441;-70
2022/01/16 00:41:13;;;;;;;50.97;25.67;;;4.20;99.90;;;;;;5055386;28;20056;-71
2022/01/16 00:43:40;;;;;;;52.58;26.15;;;4.20;99.90;;;;;;5052540;28;20016;-71
2022/01/16 00:46:05;;;;;;;53.40;26.88;;;4.20;99.90;;;;;;5050389;28;20021;-72
2022/01/16 00:48:31;;;;;;;51.60;24.60;;;4.30;99.90;;;;;;5047224;28;20025;-71
2022/01/16 00:50:57;;;;;;;49.33;24.67;;;4.20;99.90;;;;;;5047641;28;20106;-71
2022/01/16 00:53:22;;;;;;;59.17;24.73;;;4.20;99.90;;;;;;5046899;28;20052;-71
2022/01/16 00:55:48;;;;;;;50.80;24.15;;;4.20;99.90;;;;;;5048950;28;20021;-70
2022/01/16 00:58:13;;;;;;;59.45;26.42;;;4.10;99.90;;;;;;5039476;28;20041;-70
2022/01/16 01:00:42;;;;;;;58.65;25.58;;;4.10;99.90;;;;;;5038273;28;20029;-70
2022/01/16 01:03:07;;;;;;;49.22;22.17;;;4.00;99.90;;;;;;5056717;28;20018;-72
2022/01/16 01:05:36;;;;;;;53.33;24.20;;;4.00;99.90;;;;;;5042188;28;20434;-71
2022/01/16 01:08:04;;;;;;;59.03;25.35;;;4.10;99.90;;;;;;5045543;28;20096;-71
2022/01/16 01:10:33;;;;;;;56.38;25.33;;;4.10;99.90;;;;;;5047725;28;20542;-71
2022/01/16 01:13:21;;;;;;;59.72;23.95;;;4.10;99.90;;;;;;5057271;28;20029;-71
2022/01/16 01:15:50;;;;;;;57.17;25.27;;;4.10;99.90;;;;;;5036269;28;20021;-72
2022/01/16 01:18:18;;;;;;;54.83;24.05;;;4.10;99.90;;;;;;5043559;28;20096;-71
2022/01/16 01:20:47;;;;;;;54.63;25.10;;;4.10;99.90;;;;;;5053471;28;20025;-71
2022/01/16 01:23:15;;;;;;;57.95;25.58;;;4.00;99.90;;;;;;5064727;28;20028;-72
2022/01/16 01:25:42;;;;;;;55.58;24.98;;;4.00;99.90;;;;;;5053108;28;20103;-71
2022/01/16 01:28:08;;;;;;;63.20;26.50;;;4.00;99.90;;;;;;5030723;28;20021;-72
2022/01/16 01:30:35;;;;;;;61.63;26.00;;;4.00;99.90;;;;;;5023486;28;20033;-71
2022/01/16 01:33:00;;;;;;;61.53;25.23;;;4.10;99.90;;;;;;5048434;28;20069;-71
2022/01/16 01:35:26;;;;;;;61.38;25.02;;;4.10;99.90;;;;;;5048408;28;20056;-70
2022/01/16 01:37:52;;;;;;;63.50;26.60;;;4.00;99.90;;;;;;5044745;28;20029;-69
2022/01/16 01:40:22;;;;;;;61.20;25.05;;;4.10;99.90;;;;;;5042638;28;20031;-69
2022/01/16 01:43:02;;;;;;;64.90;27.73;;;4.10;99.90;;;;;;5041543;28;20478;-70
2022/01/16 01:51:10;;;;;;;64.90;25.80;;;4.10;99.90;;;;;;5044513;28;20121;-70
2022/01/16 01:53:37;;;;;;;73.13;26.50;;;4.10;99.90;;;;;;5024413;28;20026;-70
2022/01/16 01:56:06;;;;;;;68.50;25.48;;;4.10;99.90;;;;;;5045553;28;20036;-71
2022/01/16 01:58:31;;;;;;;68.93;25.98;;;4.10;99.90;;;;;;5033150;28;20035;-70
2022/01/16 02:00:57;;;;;;;74.50;27.60;;;4.10;99.90;;;;;;5057356;28;20029;-70
2022/01/16 02:05:57;;;;;;;69.25;25.13;;;4.20;99.90;;;;;;5057684;28;20021;-70
2022/01/16 02:08:23;;;;;;;68.53;25.77;;;4.10;99.90;;;;;;5057412;28;20094;-70
2022/01/16 02:10:49;;;;;;;63.42;25.80;;;4.20;99.90;;;;;;5039187;28;20021;-70
2022/01/16 02:13:28;;;;;;;66.53;26.23;;;4.10;99.90;;;;;;5057171;28;20025;-70
2022/01/16 02:30:22;;;;;;;66.03;26.90;;;4.20;99.90;;;;;;5058605;28;20108;-70
2022/01/16 02:34:42;;;;;;;61.53;25.42;;;4.20;99.90;;;;;;5062611;28;20025;-70
2022/01/16 02:37:11;;;;;;;63.72;25.40;;;4.30;99.90;;;;;;5058856;28;20423;-70
2022/01/16 02:39:41;;;;;;;67.30;26.38;;;4.20;99.90;;;;;;5059376;28;20078;-70
2022/01/16 02:42:09;;;;;;;63.65;26.00;;;4.30;99.90;;;;;;5061031;28;20028;-70
2022/01/16 02:44:44;;;;;;;63.58;27.25;;;4.30;99.90;;;;;;5042992;28;20021;-70
2022/01/16 02:47:11;;;;;;;66.32;26.48;;;4.30;99.90;;;;;;5062198;28;20041;-69
2022/01/16 02:49:40;;;;;;;66.30;25.20;;;4.30;99.90;;;;;;5059216;28;20031;-70
2022/01/16 02:52:09;;;;;;;65.97;24.88;;;4.30;99.90;;;;;;5057301;28;20018;-70
2022/01/16 02:54:38;;;;;;;66.28;26.23;;;4.30;99.90;;;;;;5056606;28;20376;-70
2022/01/16 02:57:08;;;;;;;63.17;26.40;;;4.30;99.90;;;;;;5057125;28;20039;-69
2022/01/16 02:59:34;;;;;;;62.60;25.17;;;4.40;99.90;;;;;;5039025;28;20371;-69
2022/01/16 03:02:01;;;;;;;64.72;24.88;;;4.40;99.90;;;;;;5057628;28;20394;-70
2022/01/16 03:04:27;;;;;;;63.25;24.63;;;4.30;99.90;;;;;;5058508;28;20104;-70
2022/01/16 03:06:53;;;;;;;57.97;23.85;;;4.30;99.90;;;;;;5056025;28;20490;-70
2022/01/16 03:09:20;;;;;;;57.10;23.95;;;4.40;99.90;;;;;;5057430;28;20053;-70
2022/01/16 03:11:47;;;;;;;61.22;23.27;;;4.40;99.90;;;;;;5055855;28;20017;-69
2022/01/16 03:14:16;;;;;;;60.17;22.13;;;4.40;99.90;;;;;;5056032;28;20021;-70
2022/01/16 03:16:45;;;;;;;60.78;23.70;;;4.40;99.90;;;;;;5055672;28;20103;-70
2022/01/16 03:21:57;;;;;;;52.45;21.85;;;4.30;99.90;;;;;;5056249;28;20032;-70
2022/01/16 03:24:29;;;;;;;56.03;21.90;;;4.30;99.90;;;;;;5072731;28;20084;-69
2022/01/16 03:27:04;;;;;;;66.85;25.73;;;4.30;99.90;;;;;;5062756;28;20029;-69
2022/01/16 03:29:30;;;;;;;64.32;24.92;;;4.30;99.90;;;;;;5056068;28;20046;-70
2022/01/16 03:31:56;;;;;;;63.25;26.38;;;4.30;99.90;;;;;;5055343;28;20031;-70
2022/01/16 03:34:23;;;;;;;58.50;24.25;;;4.40;99.90;;;;;;5055210;28;20029;-69
2022/01/16 03:36:48;;;;;;;57.22;24.52;;;4.40;99.90;;;;;;5054935;28;20079;-69
2022/01/16 03:39:14;;;;;;;66.00;27.13;;;4.50;99.90;;;;;;5090511;22;20052;-60
2022/01/16 03:41:40;;;;;;;62.17;25.38;;;4.50;99.90;;;;;;5073927;28;20040;-60
2022/01/16 03:44:07;;;;;;;64.15;27.70;;;4.50;99.90;;;;;;5055840;28;20115;-60
2022/01/16 03:46:36;;;;;;;61.05;25.38;;;4.50;99.90;;;;;;5073888;28;20114;-61
2022/01/16 03:49:16;;;;;;;63.60;25.48;;;4.50;99.90;;;;;;5074823;28;20178;-60
2022/01/16 03:51:45;;;;;;;56.45;25.52;;;4.50;99.90;;;;;;5074006;28;20067;-60
2022/01/16 03:54:13;;;;;;;55.35;24.20;;;4.50;99.90;;;;;;5073634;28;20033;-61
2022/01/16 03:56:38;;;;;;;61.58;25.90;;;4.50;99.90;;;;;;5074078;28;20074;-60
2022/01/16 03:59:05;;;;;;;62.85;26.20;;;4.50;99.90;;;;;;5073518;28;20570;-60
2022/01/16 04:01:31;;;;;;;61.97;25.60;;;4.40;99.90;;;;;;5073383;28;20489;-61
2022/01/16 04:03:57;;;;;;;58.13;25.05;;;4.50;99.90;;;;;;5073789;28;20041;-60
2022/01/16 04:06:23;;;;;;;62.75;27.05;;;4.50;99.90;;;;;;5073594;28;20028;-61
2022/01/16 04:08:50;;;;;;;60.05;26.30;;;4.50;99.90;;;;;;5073655;28;20021;-60
2022/01/16 04:11:16;;;;;;;58.35;26.58;;;4.50;99.90;;;;;;5073573;28;20032;-61
2022/01/16 04:13:49;;;;;;;61.72;28.33;;;4.50;99.90;;;;;;5073462;28;20033;-60
2022/01/16 04:16:15;;;;;;;62.28;26.48;;;4.50;99.90;;;;;;5073594;28;20104;-60
2022/01/16 04:18:41;;;;;;;61.67;27.20;;;4.40;99.90;;;;;;5073426;28;20551;-60
2022/01/16 04:21:07;;;;;;;61.50;27.02;;;4.30;99.90;;;;;;5073289;28;20060;-58
2022/01/16 04:23:32;;;;;;;60.13;26.83;;;4.30;99.90;;;;;;5073435;28;20477;-61
2022/01/16 04:25:58;;;;;;;62.35;28.45;;;4.20;99.90;;;;;;5073733;28;20032;-60
2022/01/16 04:28:25;;;;;;;67.35;26.38;;;4.20;99.90;;;;;;5073372;28;20519;-61
2022/01/16 04:30:52;;;;;;;60.22;26.98;;;4.20;99.90;;;;;;5073602;28;20107;-61
2022/01/16 04:33:18;;;;;;;54.50;25.83;;;4.20;99.90;;;;;;5073324;28;20036;-59
2022/01/16 04:35:44;;;;;;;62.85;28.33;;;4.10;99.90;;;;;;5073268;28;20107;-60
2022/01/16 04:38:09;;;;;;;61.63;26.52;;;4.00;99.90;;;;;;5073030;28;20137;-60
2022/01/16 04:40:45;;;;;;;59.85;26.35;;;4.00;99.90;;;;;;5073024;28;20029;-61
2022/01/16 04:45:56;;;;;;;69.95;27.80;;;3.90;99.90;;;;;;5073134;28;20023;-59
2022/01/16 04:48:21;;;;;;;59.50;27.30;;;4.00;99.90;;;;;;5073304;28;20024;-61
2022/01/16 04:50:46;;;;;;;63.72;26.67;;;4.00;99.90;;;;;;5072903;28;20478;-61
2022/01/16 04:53:12;;;;;;;63.78;26.88;;;4.00;99.90;;;;;;5073379;28;20036;-60
2022/01/16 04:55:38;;;;;;;66.40;28.30;;;3.90;99.90;;;;;;5073122;28;20031;-61
2022/01/16 04:58:03;;;;;;;66.95;27.35;;;4.00;99.90;;;;;;5073015;28;20477;-60
2022/01/16 05:00:29;;;;;;;70.28;29.40;;;3.90;99.90;;;;;;5055228;28;20021;-60
2022/01/16 05:02:54;;;;;;;69.82;29.05;;;4.00;99.90;;;;;;5072633;28;20070;-60
2022/01/16 05:05:20;;;;;;;71.40;29.83;;;4.00;99.90;;;;;;5073407;28;20021;-60
2022/01/16 05:07:45;;;;;;;81.93;32.38;;;3.90;99.90;;;;;;5072713;28;20108;-61
2022/01/16 05:10:13;;;;;;;75.07;31.90;;;3.80;99.90;;;;;;5072649;28;20071;-60
2022/01/16 05:12:41;;;;;;;83.00;33.28;;;3.80;99.90;;;;;;5072762;28;20024;-61
2022/01/16 05:17:51;;;;;;;90.40;35.55;;;3.70;99.90;;;;;;5073302;28;20047;-61
2022/01/16 05:20:17;;;;;;;91.18;35.42;;;3.70;99.90;;;;;;5072614;28;20033;-61
2022/01/16 05:22:43;;;;;;;101.72;39.42;;;3.70;99.90;;;;;;5072472;28;20048;-60
2022/01/16 05:25:12;;;;;;;107.35;37.50;;;3.60;99.90;;;;;;5072547;28;20064;-60
2022/01/16 05:27:37;;;;;;;104.90;39.17;;;3.60;99.90;;;;;;5072447;28;20028;-60
2022/01/16 05:30:04;;;;;;;101.40;37.45;;;3.60;99.90;;;;;;5074143;28;20052;-58
2022/01/16 05:32:29;;;;;;;101.95;40.40;;;3.70;99.90;;;;;;5076258;28;20028;-59
2022/01/16 05:34:55;;;;;;;111.90;39.08;;;3.70;99.90;;;;;;5076362;28;20055;-60
2022/01/16 05:37:20;;;;;;;102.55;38.40;;;3.60;99.90;;;;;;5076937;28;20087;-59
2022/01/16 05:39:47;;;;;;;104.93;38.50;;;3.70;99.90;;;;;;5076246;28;20063;-60
2022/01/16 05:42:13;;;;;;;112.03;39.28;;;3.70;99.90;;;;;;5076136;28;20074;-60
2022/01/16 05:44:39;;;;;;;112.60;41.78;;;3.80;99.90;;;;;;5076425;28;20028;-61
2022/01/16 05:47:05;;;;;;;108.68;40.58;;;3.70;99.90;;;;;;5076078;28;20021;-60
2022/01/16 05:49:31;;;;;;;111.35;40.72;;;3.70;99.90;;;;;;5076575;28;20032;-60
2022/01/16 05:51:57;;;;;;;104.18;38.40;;;3.70;99.90;;;;;;5058127;28;20025;-60
2022/01/16 05:54:23;;;;;;;121.93;42.67;;;3.70;99.90;;;;;;5075891;28;20378;-61
2022/01/16 05:56:49;;;;;;;112.03;40.42;;;3.70;99.90;;;;;;5076065;28;20397;-60
2022/01/16 05:59:15;;;;;;;110.25;39.45;;;3.70;99.90;;;;;;5076323;28;20035;-61
2022/01/16 06:01:40;;;;;;;120.30;40.00;;;3.70;99.90;;;;;;5076145;28;20035;-60
2022/01/16 06:04:06;;;;;;;107.35;40.70;;;3.70;99.90;;;;;;5075634;28;20047;-61
2022/01/16 06:06:31;;;;;;;123.15;41.40;;;3.60;99.90;;;;;;5076177;28;20385;-59
2022/01/16 06:08:57;;;;;;;113.82;41.30;;;3.70;99.90;;;;;;5076056;28;20025;-60
2022/01/16 06:11:22;;;;;;;111.53;39.83;;;3.70;99.90;;;;;;5075808;28;20033;-60
2022/01/16 06:13:48;;;;;;;121.05;40.80;;;3.60;99.90;;;;;;5075584;28;20025;-61
2022/01/16 06:16:13;;;;;;;119.95;41.08;;;3.60;99.90;;;;;;5075499;28;20028;-61
2022/01/16 06:18:39;;;;;;;113.55;41.17;;;3.60;99.90;;;;;;5075461;28;20020;-60
2022/01/16 06:21:04;;;;;;;121.65;41.05;;;3.60;99.90;;;;;;5075413;28;20078;-59
2022/01/16 06:23:30;;;;;;;115.72;39.70;;;3.60;99.90;;;;;;5075575;28;20070;-59
2022/01/16 06:25:56;;;;;;;118.72;41.97;;;3.60;99.90;;;;;;5057623;28;20355;-60
2022/01/16 06:28:23;;;;;;;122.55;42.20;;;3.60;99.90;;;;;;5076020;28;20024;-58
2022/01/16 06:30:49;;;;;;;121.65;43.35;;;3.60;99.90;;;;;;5075770;28;20020;-59
2022/01/16 06:33:15;;;;;;;133.57;43.95;;;3.60;99.90;;;;;;5075370;28;20029;-60
2022/01/16 06:35:40;;;;;;;134.15;43.38;;;3.50;99.90;;;;;;5075391;28;20034;-60
2022/01/16 06:38:06;;;;;;;125.78;44.53;;;3.50;99.90;;;;;;5075036;28;20036;-60
2022/01/16 06:40:32;;;;;;;130.48;43.72;;;3.60;99.90;;;;;;5075183;28;20060;-60
2022/01/16 06:42:57;;;;;;;119.93;40.92;;;3.50;99.90;;;;;;5074957;28;20082;-60
2022/01/16 06:45:23;;;;;;;126.53;44.55;;;3.50;99.90;;;;;;5074993;28;20017;-59
2022/01/16 06:47:49;;;;;;;131.45;44.90;;;3.50;99.90;;;;;;5074939;28;20032;-59
2022/01/16 06:50:14;;;;;;;135.38;43.65;;;3.50;99.90;;;;;;5074895;28;20052;-60
2022/01/16 06:52:40;;;;;;;126.25;43.92;;;3.60;99.90;;;;;;5074809;28;20036;-58
2022/01/16 06:55:06;;;;;;;136.95;44.17;;;3.60;99.90;;;;;;5075620;28;20093;-59
2022/01/16 06:57:32;;;;;;;130.60;42.20;;;3.60;99.90;;;;;;5075208;28;20199;-60
2022/01/16 06:59:57;;;;;;;131.55;43.13;;;3.60;99.90;;;;;;5074739;28;20078;-59
2022/01/16 07:02:23;;;;;;;130.25;44.97;;;3.60;99.90;;;;;;5074927;28;20024;-60
2022/01/16 07:04:48;;;;;;;138.20;45.03;;;3.60;99.90;;;;;;5074124;28;20020;-60
2022/01/16 07:07:14;;;;;;;142.38;46.83;;;3.60;99.90;;;;;;5074873;28;20074;-61
2022/01/16 07:09:39;;;;;;;139.73;46.55;;;3.60;99.90;;;;;;5074561;28;20028;-60
2022/01/16 07:12:06;;;;;;;152.68;46.50;;;3.60;99.90;;;;;;5072073;28;20037;-61
2022/01/16 07:14:32;;;;;;;135.95;45.13;;;3.60;99.90;;;;;;5072790;28;20032;-61
2022/01/16 07:16:57;;;;;;;160.45;49.90;;;3.60;99.90;;;;;;5072578;28;20086;-61
2022/01/16 07:19:23;;;;;;;147.77;47.17;;;3.60;99.90;;;;;;5070945;28;20035;-61
2022/01/16 07:21:49;;;;;;;145.15;47.50;;;3.60;99.90;;;;;;5069224;28;20031;-59
2022/01/16 07:24:15;;;;;;;143.55;46.28;;;3.60;99.90;;;;;;5069282;28;20476;-59
2022/01/16 07:26:42;;;;;;;134.73;44.80;;;3.60;99.90;;;;;;5071762;28;20028;-59
2022/01/16 07:29:08;;;;;;;147.68;43.65;;;3.60;99.90;;;;;;5067175;28;20099;-62
2022/01/16 07:31:33;;;;;;;139.90;44.78;;;3.60;99.90;;;;;;5064716;28;20111;-61
2022/01/16 07:33:59;;;;;;;156.82;47.72;;;3.60;99.90;;;;;;5068366;28;20021;-62
2022/01/16 07:36:25;;;;;;;141.77;44.55;;;3.70;99.90;;;;;;5061283;28;20021;-61
2022/01/16 07:38:50;;;;;;;135.80;43.35;;;3.70;99.90;;;;;;5061112;28;20033;-60
2022/01/16 07:41:16;;;;;;;146.07;46.38;;;3.70;99.90;;;;;;5061136;28;20100;-60
2022/01/16 07:43:41;;;;;;;152.77;48.00;;;3.70;99.90;;;;;;5063617;28;20033;-61
2022/01/16 07:46:07;;;;;;;148.02;45.72;;;3.70;99.90;;;;;;5062701;28;20025;-62
2022/01/16 07:48:32;;;;;;;142.18;43.40;;;3.70;99.90;;;;;;5066583;28;20485;-62
2022/01/16 07:50:58;;;;;;;133.30;43.53;;;3.70;99.90;;;;;;5047841;28;20059;-62
2022/01/16 07:53:23;;;;;;;148.27;45.63;;;3.70;99.90;;;;;;5069275;28;20039;-62
2022/01/16 07:55:49;;;;;;;145.52;42.38;;;3.80;99.90;;;;;;5073318;28;20044;-62
2022/01/16 07:58:14;;;;;;;133.07;43.50;;;3.80;99.90;;;;;;5066232;28;20516;-61
2022/01/16 08:00:40;;;;;;;136.90;43.25;;;3.80;99.90;;;;;;5053749;28;20402;-61
2022/01/16 08:03:06;;;;;;;135.38;44.22;;;3.80;99.90;;;;;;5035803;28;20025;-61
2022/01/16 08:05:31;;;;;;;131.68;43.30;;;3.90;99.90;;;;;;5054145;28;20420;-60
2022/01/16 08:07:57;;;;;;;137.93;41.25;;;3.90;99.90;;;;;;5053637;28;20056;-61
2022/01/16 08:10:23;;;;;;;135.60;43.90;;;3.90;99.90;;;;;;5053927;28;20029;-61
2022/01/16 08:12:48;;;;;;;146.25;44.85;;;3.90;99.90;;;;;;5035790;28;20028;-62
2022/01/16 08:15:14;;;;;;;141.85;45.28;;;4.00;99.90;;;;;;5053718;28;20025;-62
2022/01/16 08:17:39;;;;;;;137.25;44.67;;;4.00;99.90;;;;;;5053295;28;20029;-61
2022/01/16 08:20:10;;;;;;;130.00;42.75;;;4.00;99.90;;;;;;5053451;28;20032;-61
2022/01/16 08:22:36;;;;;;;137.13;45.08;;;4.10;99.90;;;;;;5053640;28;20021;-59
2022/01/16 08:25:04;;;;;;;131.98;41.30;;;4.10;99.90;;;;;;5053383;28;20025;-61
2022/01/16 08:27:29;;;;;;;138.32;45.40;;;4.10;99.90;;;;;;5053900;28;20025;-60
2022/01/16 08:29:55;;;;;;;126.85;41.20;;;4.10;99.90;;;;;;5053701;28;20074;-60
2022/01/16 08:32:21;;;;;;;135.80;42.78;;;4.20;99.90;;;;;;5053726;28;20017;-62
2022/01/16 08:34:46;;;;;;;134.27;43.03;;;4.10;99.90;;;;;;5053941;28;20029;-61
2022/01/16 08:37:12;;;;;;;140.15;45.53;;;4.10;99.90;;;;;;5055036;28;20025;-61
2022/01/16 08:39:38;;;;;;;135.13;44.58;;;4.10;99.90;;;;;;5053713;28;20421;-62
2022/01/16 08:42:03;;;;;;;116.13;40.03;;;4.10;99.90;;;;;;5053398;28;20025;-61
2022/01/16 08:44:29;;;;;;;131.05;41.55;;;4.20;99.90;;;;;;5035626;28;20021;-61
2022/01/16 08:46:55;;;;;;;139.55;45.70;;;4.20;99.90;;;;;;5035467;28;20021;-59
2022/01/16 08:49:20;;;;;;;138.77;42.88;;;4.20;99.90;;;;;;5053393;28;20025;-60
2022/01/16 08:51:46;;;;;;;132.82;39.42;;;4.20;99.90;;;;;;5053269;28;20052;-60
2022/01/16 08:54:11;;;;;;;131.90;42.25;;;4.20;99.90;;;;;;5053361;28;20033;-62
2022/01/16 08:56:37;;;;;;;119.40;40.65;;;4.20;99.90;;;;;;5053022;28;20029;-60
2022/01/16 08:59:03;;;;;;;125.03;40.50;;;4.20;99.90;;;;;;5052972;28;20104;-61
2022/01/16 09:01:28;;;;;;;120.93;41.65;;;4.20;99.90;;;;;;5052669;28;20029;-62
2022/01/16 09:03:54;;;;;;;129.25;40.20;;;4.20;99.90;;;;;;5052603;28;20033;-62
2022/01/16 09:06:19;;;;;;;134.07;41.72;;;4.20;99.90;;;;;;5056812;28;20025;-62
2022/01/16 09:08:45;;;;;;;129.10;40.42;;;4.20;99.90;;;;;;5056910;28;20032;-62
2022/01/16 09:11:11;;;;;;;121.40;40.78;;;4.20;99.90;;;;;;5056970;28;20104;-62
2022/01/16 09:13:40;;;;;;;121.38;41.22;;;4.20;99.90;;;;;;5057341;28;20114;-62
2022/01/16 09:16:06;;;;;;;135.95;43.63;;;4.20;99.90;;;;;;5057044;28;20107;-62
2022/01/16 09:18:33;;;;;;;113.50;37.60;;;4.20;99.90;;;;;;5056727;28;20124;-62
2022/01/16 09:21:00;;;;;;;115.03;40.95;;;4.30;99.90;;;;;;5039750;28;20390;-62
2022/01/16 09:23:25;;;;;;;126.38;39.15;;;4.30;99.90;;;;;;5056728;28;20029;-61
2022/01/16 09:25:51;;;;;;;128.68;42.53;;;4.30;99.90;;;;;;5056867;28;20025;-61
2022/01/16 09:28:17;;;;;;;126.65;41.30;;;4.20;99.90;;;;;;5056823;28;20028;-61
2022/01/16 09:30:43;;;;;;;122.65;40.88;;;4.20;99.90;;;;;;5056610;28;20465;-61
2022/01/16 09:33:09;;;;;;;117.60;39.92;;;4.20;99.90;;;;;;5056732;28;20028;-60
2022/01/16 09:35:34;;;;;;;123.53;39.17;;;4.10;99.90;;;;;;5057248;28;20088;-60
2022/01/16 09:38:01;;;;;;;112.55;39.05;;;4.20;99.90;;;;;;5065879;28;20444;-60
2022/01/16 09:40:26;;;;;;;119.70;39.63;;;4.20;99.90;;;;;;5061589;23;20041;-61
2022/01/16 09:42:52;;;;;;;112.78;39.08;;;4.30;99.90;;;;;;5042456;28;20036;-62
2022/01/16 09:45:19;;;;;;;117.40;36.38;;;4.30;99.90;;;;;;5057545;28;20432;-62
2022/01/16 09:47:47;;;;;;;118.25;38.28;;;4.30;99.90;;;;;;5059483;28;20024;-62
2022/01/16 09:50:16;;;;;;;122.03;39.35;;;4.30;99.90;;;;;;5062905;28;20020;-62
2022/01/16 09:52:43;;;;;;;119.18;39.70;;;4.30;99.90;;;;;;5063499;28;20104;-62
2022/01/16 09:55:10;;;;;;;114.47;38.72;;;4.30;99.90;;;;;;5054196;28;20029;-61
2022/01/16 09:57:36;;;;;;;116.43;37.80;;;4.30;99.90;;;;;;5044264;28;20487;-62
2022/01/16 10:00:04;;;;;;;122.25;38.90;;;4.30;99.90;;;;;;5042288;28;20037;-62
2022/01/16 10:02:30;;;;;;;116.95;38.08;;;4.40;99.90;;;;;;5048965;28;20026;-62
2022/01/16 10:04:55;;;;;;;114.95;39.22;;;4.40;99.90;;;;;;5056699;28;20021;-62
2022/01/16 10:07:21;;;;;;;119.75;39.55;;;4.40;99.90;;;;;;5050480;28;20024;-60
2022/01/16 10:10:07;;;;;;;125.30;41.80;;;4.40;99.90;;;;;;5054581;28;20398;-62
2022/01/16 10:12:34;;;;;;;111.82;36.97;;;4.40;99.90;;;;;;5056921;28;20029;-61
2022/01/16 10:15:17;;;;;;;122.78;41.35;;;4.40;99.90;;;;;;5055804;28;20036;-60
2022/01/16 10:17:50;;;;;;;112.97;40.25;;;4.40;99.90;;;;;;5056297;28;20112;-62
2022/01/16 10:20:17;;;;;;;123.13;39.42;;;4.40;99.90;;;;;;5058034;28;20453;-62
2022/01/16 10:22:52;;;;;;;119.47;40.05;;;4.40;99.90;;;;;;5056887;28;20443;-61
2022/01/16 10:25:39;;;;;;;115.68;39.13;;;4.40;99.90;;;;;;5056777;28;20389;-62
2022/01/16 10:28:14;;;;;;;112.03;38.78;;;4.40;99.90;;;;;;5055317;28;20082;-62
2022/01/16 10:30:43;;;;;;;120.35;42.17;;;4.40;99.90;;;;;;5056075;28;20029;-62
2022/01/16 10:33:17;;;;;;;124.82;42.53;;;4.40;99.90;;;;;;5054595;28;20021;-62
2022/01/16 10:35:44;;;;;;;108.93;39.72;;;4.50;99.90;;;;;;5056274;28;20029;-61
2022/01/16 10:38:15;;;;;;;121.82;41.03;;;4.50;99.90;;;;;;5056139;28;20032;-61
2022/01/16 10:40:41;;;;;;;119.63;39.95;;;4.50;99.90;;;;;;5055850;28;20041;-61
2022/01/16 10:43:13;;;;;;;110.32;38.25;;;4.50;99.90;;;;;;5055760;28;20029;-61
2022/01/16 10:45:41;;;;;;;118.43;40.85;;;4.60;99.90;;;;;;5056286;28;20084;-63
2022/01/16 10:48:07;;;;;;;123.43;41.03;;;4.60;99.90;;;;;;5059504;28;20035;-62
2022/01/16 10:50:38;;;;;;;125.78;41.72;;;4.60;99.90;;;;;;5056567;28;20075;-62
2022/01/16 10:53:22;;;;;;;118.63;44.08;;;4.70;99.90;;;;;;5053113;28;20071;-63
2022/01/16 10:55:54;;;;;;;125.97;40.20;;;4.70;99.90;;;;;;5048921;28;20116;-62
2022/01/16 10:58:28;;;;;;;117.65;42.72;;;4.70;99.90;;;;;;5048822;28;20100;-63
2022/01/16 11:01:03;;;;;;;123.63;42.97;;;4.80;99.90;;;;;;5048064;28;20036;-62
2022/01/16 11:03:41;;;;;;;125.38;42.42;;;4.90;99.90;;;;;;5044752;28;20044;-62
2022/01/16 11:06:07;;;;;;;122.40;43.30;;;4.90;99.90;;;;;;5045569;28;20442;-62
2022/01/16 11:08:33;;;;;;;124.63;42.28;;;4.90;99.90;;;;;;5042285;28;20040;-62
2022/01/16 11:11:00;;;;;;;120.43;44.65;;;5.00;99.90;;;;;;5044287;28;20022;-62
2022/01/16 11:13:29;;;;;;;128.77;43.47;;;5.00;99.90;;;;;;5043030;28;20030;-61
2022/01/16 11:15:59;;;;;;;122.85;43.47;;;5.00;99.90;;;;;;5046463;28;20082;-62
2022/01/16 11:18:26;;;;;;;120.22;43.72;;;5.00;99.90;;;;;;5050746;28;20029;-62
2022/01/16 11:23:31;;;;;;;132.77;44.13;;;5.10;99.90;;;;;;5054690;28;20032;-62
2022/01/16 11:26:03;;;;;;;124.45;45.78;;;5.10;99.90;;;;;;5053538;28;20036;-61
2022/01/16 11:28:28;;;;;;;127.85;44.80;;;5.20;99.90;;;;;;5038642;28;20028;-60
2022/01/16 11:30:57;;;;;;;130.50;45.22;;;5.20;99.90;;;;;;5049020;28;20454;-62
2022/01/16 11:33:24;;;;;;;126.88;41.83;;;5.20;99.90;;;;;;5054577;28;20032;-62
2022/01/16 11:35:54;;;;;;;122.43;44.10;;;5.20;99.90;;;;;;5051393;28;20097;-62
2022/01/16 11:38:21;;;;;;;124.55;44.03;;;5.30;99.90;;;;;;5054382;28;20029;-62
2022/01/16 11:40:48;;;;;;;126.65;45.17;;;5.30;99.90;;;;;;5054062;28;20036;-62
2022/01/16 11:43:32;;;;;;;121.25;43.40;;;5.40;99.90;;;;;;5055014;28;20025;-62
2022/01/16 11:46:13;;;;;;;125.78;46.20;;;5.40;99.90;;;;;;5054112;28;20028;-62
2022/01/16 11:48:53;;;;;;;123.15;43.17;;;5.40;99.90;;;;;;5054652;28;20037;-64
2022/01/16 11:51:38;;;;;;;121.65;44.97;;;5.40;99.90;;;;;;5053267;28;20025;-62
2022/01/16 11:54:26;;;;;;;120.50;44.75;;;5.50;99.90;;;;;;5054671;28;20028;-62
2022/01/16 11:56:53;;;;;;;120.65;44.08;;;5.50;99.90;;;;;;5054447;28;20029;-61
2022/01/16 11:59:24;;;;;;;116.63;44.13;;;5.60;99.90;;;;;;5052834;28;20028;-62
2022/01/16 12:01:57;;;;;;;113.38;40.70;;;5.60;99.90;;;;;;5054272;28;20033;-62
2022/01/16 12:04:28;;;;;;;103.10;40.10;;;5.70;99.90;;;;;;5054027;28;20017;-61
2022/01/16 12:07:02;;;;;;;110.65;41.55;;;5.70;99.90;;;;;;5054154;28;20461;-61
2022/01/16 12:09:35;;;;;;;111.65;43.63;;;5.90;99.90;;;;;;5045004;28;20032;-62
2022/01/16 12:12:01;;;;;;;113.10;44.50;;;6.00;99.90;;;;;;5054315;28;20033;-62
2022/01/16 12:14:46;;;;;;;96.43;39.05;;;6.00;99.90;;;;;;5054022;28;20033;-61
2022/01/16 12:17:32;;;;;;;108.72;39.85;;;5.90;99.90;;;;;;5054522;28;20028;-63
2022/01/16 12:20:15;;;;;;;108.25;41.75;;;6.00;99.90;;;;;;5052224;28;20029;-62
2022/01/16 12:23:04;;;;;;;117.43;44.72;;;6.00;99.90;;;;;;5051974;28;20028;-62
2022/01/16 12:25:54;;;;;;;106.78;41.95;;;6.10;99.90;;;;;;5048960;28;20029;-62
2022/01/16 12:28:23;;;;;;;114.22;44.67;;;6.10;99.90;;;;;;5054763;28;20393;-64
2022/01/16 12:31:06;;;;;;;118.18;43.00;;;6.20;99.90;;;;;;5055441;28;20021;-61
2022/01/16 12:33:37;;;;;;;115.45;42.83;;;6.20;99.90;;;;;;5035164;28;20030;-63
2022/01/16 12:36:13;;;;;;;;;;;6.20;99.90;;;;;;5052983;28;20489;-62
2022/01/16 12:38:41;;;;;;;111.22;41.30;;;6.30;99.90;;;;;;5049243;28;19912;-62
2022/01/16 12:41:21;;;;;;;105.03;41.40;;;6.30;99.90;;;;;;5043324;28;20041;-60
2022/01/16 12:44:12;;;;;;;104.88;42.38;;;6.30;99.90;;;;;;5047181;28;20112;-62
2022/01/16 12:46:41;;;;;;;101.85;40.45;;;6.30;99.90;;;;;;5050721;28;20056;-62
2022/01/16 12:49:13;;;;;;;107.38;41.33;;;6.30;99.90;;;;;;5056137;28;20041;-64
2022/01/16 12:51:40;;;;;;;115.88;42.90;;;6.30;99.90;;;;;;5052359;28;20124;-64
2022/01/16 12:54:17;;;;;;;98.90;40.58;;;6.40;99.90;;;;;;5054315;28;20029;-61
2022/01/16 12:56:51;;;;;;;105.60;39.60;;;6.40;99.90;;;;;;5054518;28;20025;-61
2022/01/16 12:59:20;;;;;;;98.90;39.47;;;6.40;99.90;;;;;;5054151;28;20029;-62
2022/01/16 13:01:53;;;;;;;98.93;38.63;;;6.40;99.90;;;;;;5054389;28;20048;-63
2022/01/16 13:04:21;;;;;;;111.00;42.60;;;6.40;99.90;;;;;;5054632;28;20393;-61
2022/01/16 13:06:47;;;;;;;91.32;34.85;;;6.40;99.90;;;;;;5054332;28;20021;-63
2022/01/16 13:09:13;;;;;;;89.70;34.25;;;6.50;99.90;;;;;;5053033;28;20032;-63
2022/01/16 13:11:48;;;;;;;84.53;32.08;;;6.50;99.90;;;;;;5054011;28;20478;-62